sensor_id;sensor_type;location;lat;lon;timestamp;P1;durP1;ratioP1;P2;durP2;ratioP2
36923;SDS011;22841;50.252;18.688;2023-01-01T00:01:06;48.35;;;24.52;;
36923;SDS011;22841;50.252;18.688;2023-01-01T00:03:36;39.58;;;23.27;;
36923;SDS011;22841;50.252;18.688;2023-01-01T00:06:10;39.88;;;22.58;;
36923;SDS011;22841;50.252;18.688;2023-01-01T00:08:38;41.03;;;23.15;;
36923;SDS011;22841;50.252;18.688;2023-01-01T00:11:05;46.67;;;24.90;;
36923;SDS011;22841;50.252;18.688;2023-01-01T00:13:33;40.92;;;23.48;;
36923;SDS011;22841;50.252;18.688;2023-01-01T00:16:08;41.78;;;23.40;;
36923;SDS011;22841;50.252;18.688;2023-01-01T00:18:36;49.45;;;23.33;;
36923;SDS011;22841;50.252;18.688;2023-01-01T00:23:30;45.38;;;23.13;;
36923;SDS011;22841;50.252;18.688;2023-01-01T00:25:56;41.60;;;22.63;;
36923;SDS011;22841;50.252;18.688;2023-01-01T00:28:23;44.53;;;22.38;;
36923;SDS011;22841;50.252;18.688;2023-01-01T00:30:49;40.30;;;20.75;;
36923;SDS011;22841;50.252;18.688;2023-01-01T00:33:15;48.13;;;22.38;;
36923;SDS011;22841;50.252;18.688;2023-01-01T00:35:41;40.55;;;22.52;;
36923;SDS011;22841;50.252;18.688;2023-01-01T00:38:07;42.65;;;22.83;;
36923;SDS011;22841;50.252;18.688;2023-01-01T00:40:33;40.88;;;23.60;;
36923;SDS011;22841;50.252;18.688;2023-01-01T00:42:59;46.42;;;22.13;;
36923;SDS011;22841;50.252;18.688;2023-01-01T00:45:25;45.25;;;24.00;;
36923;SDS011;22841;50.252;18.688;2023-01-01T00:47:52;48.92;;;23.35;;
36923;SDS011;22841;50.252;18.688;2023-01-01T00:50:19;46.40;;;24.30;;
36923;SDS011;22841;50.252;18.688;2023-01-01T00:52:46;42.58;;;22.38;;
36923;SDS011;22841;50.252;18.688;2023-01-01T00:55:13;43.60;;;23.27;;
36923;SDS011;22841;50.252;18.688;2023-01-01T00:57:40;50.95;;;23.98;;
36923;SDS011;22841;50.252;18.688;2023-01-01T01:00:06;51.80;;;24.73;;
36923;SDS011;22841;50.252;18.688;2023-01-01T01:02:33;46.22;;;24.15;;
36923;SDS011;22841;50.252;18.688;2023-01-01T01:04:59;43.05;;;23.55;;
36923;SDS011;22841;50.252;18.688;2023-01-01T01:07:31;46.40;;;22.55;;
36923;SDS011;22841;50.252;18.688;2023-01-01T01:10:00;45.53;;;23.17;;
36923;SDS011;22841;50.252;18.688;2023-01-01T01:12:26;41.60;;;21.98;;
36923;SDS011;22841;50.252;18.688;2023-01-01T01:14:52;46.35;;;23.52;;
36923;SDS011;22841;50.252;18.688;2023-01-01T01:17:18;38.05;;;21.23;;
36923;SDS011;22841;50.252;18.688;2023-01-01T01:19:44;39.53;;;19.30;;
36923;SDS011;22841;50.252;18.688;2023-01-01T01:22:10;37.08;;;17.15;;
36923;SDS011;22841;50.252;18.688;2023-01-01T01:24:36;29.58;;;16.60;;
36923;SDS011;22841;50.252;18.688;2023-01-01T01:27:02;26.73;;;15.10;;
36923;SDS011;22841;50.252;18.688;2023-01-01T01:29:28;25.42;;;13.52;;
36923;SDS011;22841;50.252;18.688;2023-01-01T01:31:54;28.00;;;12.88;;
36923;SDS011;22841;50.252;18.688;2023-01-01T01:34:20;17.45;;;11.32;;
36923;SDS011;22841;50.252;18.688;2023-01-01T01:36:46;17.83;;;9.75;;
36923;SDS011;22841;50.252;18.688;2023-01-01T01:39:13;14.48;;;9.18;;
36923;SDS011;22841;50.252;18.688;2023-01-01T01:41:39;20.15;;;9.93;;
36923;SDS011;22841;50.252;18.688;2023-01-01T01:44:52;16.25;;;9.82;;
36923;SDS011;22841;50.252;18.688;2023-01-01T01:47:13;15.60;;;8.77;;
36923;SDS011;22841;50.252;18.688;2023-01-01T01:49:42;22.08;;;10.35;;
36923;SDS011;22841;50.252;18.688;2023-01-01T01:52:09;16.60;;;9.20;;
36923;SDS011;22841;50.252;18.688;2023-01-01T01:54:36;15.73;;;8.13;;
36923;SDS011;22841;50.252;18.688;2023-01-01T01:57:05;14.35;;;8.50;;
36923;SDS011;22841;50.252;18.688;2023-01-01T01:59:35;12.50;;;7.30;;
36923;SDS011;22841;50.252;18.688;2023-01-01T02:02:07;13.05;;;7.53;;
36923;SDS011;22841;50.252;18.688;2023-01-01T02:04:39;13.93;;;7.75;;
36923;SDS011;22841;50.252;18.688;2023-01-01T02:07:06;14.15;;;7.43;;
36923;SDS011;22841;50.252;18.688;2023-01-01T02:09:33;15.95;;;8.93;;
36923;SDS011;22841;50.252;18.688;2023-01-01T02:11:59;23.02;;;9.63;;
36923;SDS011;22841;50.252;18.688;2023-01-01T02:14:25;21.98;;;10.05;;
36923;SDS011;22841;50.252;18.688;2023-01-01T02:16:55;19.67;;;9.82;;
36923;SDS011;22841;50.252;18.688;2023-01-01T02:24:42;16.90;;;9.60;;
36923;SDS011;22841;50.252;18.688;2023-01-01T02:27:19;15.73;;;8.50;;
36923;SDS011;22841;50.252;18.688;2023-01-01T02:29:57;17.77;;;8.98;;
36923;SDS011;22841;50.252;18.688;2023-01-01T02:32:37;18.27;;;9.70;;
36923;SDS011;22841;50.252;18.688;2023-01-01T02:35:30;19.80;;;9.38;;
36923;SDS011;22841;50.252;18.688;2023-01-01T02:38:04;20.17;;;9.93;;
36923;SDS011;22841;50.252;18.688;2023-01-01T02:40:36;21.75;;;9.75;;
36923;SDS011;22841;50.252;18.688;2023-01-01T02:43:07;20.45;;;10.70;;
36923;SDS011;22841;50.252;18.688;2023-01-01T02:45:33;21.85;;;11.00;;
36923;SDS011;22841;50.252;18.688;2023-01-01T02:48:06;16.23;;;9.13;;
36923;SDS011;22841;50.252;18.688;2023-01-01T02:50:51;22.25;;;9.90;;
36923;SDS011;22841;50.252;18.688;2023-01-01T02:55:47;21.05;;;10.52;;
36923;SDS011;22841;50.252;18.688;2023-01-01T03:01:30;21.50;;;10.23;;
36923;SDS011;22841;50.252;18.688;2023-01-01T03:04:06;22.30;;;10.98;;
36923;SDS011;22841;50.252;18.688;2023-01-01T03:06:41;20.60;;;11.02;;
36923;SDS011;22841;50.252;18.688;2023-01-01T03:09:47;18.42;;;10.00;;
36923;SDS011;22841;50.252;18.688;2023-01-01T03:12:31;19.43;;;10.70;;
36923;SDS011;22841;50.252;18.688;2023-01-01T03:20:29;20.70;;;10.38;;
36923;SDS011;22841;50.252;18.688;2023-01-01T03:23:01;31.90;;;15.20;;
36923;SDS011;22841;50.252;18.688;2023-01-01T03:25:32;31.95;;;14.55;;
36923;SDS011;22841;50.252;18.688;2023-01-01T03:28:02;29.35;;;15.65;;
36923;SDS011;22841;50.252;18.688;2023-01-01T03:30:32;34.40;;;16.00;;
36923;SDS011;22841;50.252;18.688;2023-01-01T03:33:10;29.52;;;15.30;;
36923;SDS011;22841;50.252;18.688;2023-01-01T03:38:28;25.80;;;15.82;;
36923;SDS011;22841;50.252;18.688;2023-01-01T03:41:38;34.42;;;16.48;;
36923;SDS011;22841;50.252;18.688;2023-01-01T03:44:39;31.42;;;15.52;;
36923;SDS011;22841;50.252;18.688;2023-01-01T03:47:10;31.10;;;13.57;;
36923;SDS011;22841;50.252;18.688;2023-01-01T03:49:37;28.05;;;13.90;;
36923;SDS011;22841;50.252;18.688;2023-01-01T03:55:47;23.70;;;11.68;;
36923;SDS011;22841;50.252;18.688;2023-01-01T03:58:26;25.50;;;13.15;;
36923;SDS011;22841;50.252;18.688;2023-01-01T04:01:00;29.55;;;13.10;;
36923;SDS011;22841;50.252;18.688;2023-01-01T04:03:35;24.83;;;12.93;;
36923;SDS011;22841;50.252;18.688;2023-01-01T04:06:03;26.38;;;12.95;;
36923;SDS011;22841;50.252;18.688;2023-01-01T04:08:32;26.45;;;11.52;;
36923;SDS011;22841;50.252;18.688;2023-01-01T04:10:59;22.15;;;11.07;;
36923;SDS011;22841;50.252;18.688;2023-01-01T04:13:50;27.50;;;11.15;;
36923;SDS011;22841;50.252;18.688;2023-01-01T04:16:16;26.92;;;11.63;;
36923;SDS011;22841;50.252;18.688;2023-01-01T04:18:43;22.65;;;10.50;;
36923;SDS011;22841;50.252;18.688;2023-01-01T04:21:10;17.40;;;10.30;;
36923;SDS011;22841;50.252;18.688;2023-01-01T04:23:37;23.33;;;10.48;;
36923;SDS011;22841;50.252;18.688;2023-01-01T04:26:03;19.17;;;9.57;;
36923;SDS011;22841;50.252;18.688;2023-01-01T04:28:29;17.88;;;8.18;;
36923;SDS011;22841;50.252;18.688;2023-01-01T04:30:55;21.23;;;9.93;;
36923;SDS011;22841;50.252;18.688;2023-01-01T04:33:21;17.25;;;9.30;;
36923;SDS011;22841;50.252;18.688;2023-01-01T04:35:47;16.75;;;8.48;;
36923;SDS011;22841;50.252;18.688;2023-01-01T04:38:13;17.00;;;8.52;;
36923;SDS011;22841;50.252;18.688;2023-01-01T04:40:39;25.95;;;12.10;;
36923;SDS011;22841;50.252;18.688;2023-01-01T04:43:05;19.95;;;10.23;;
36923;SDS011;22841;50.252;18.688;2023-01-01T04:45:31;23.85;;;12.60;;
36923;SDS011;22841;50.252;18.688;2023-01-01T04:48:02;18.75;;;9.90;;
36923;SDS011;22841;50.252;18.688;2023-01-01T04:50:29;17.67;;;10.13;;
36923;SDS011;22841;50.252;18.688;2023-01-01T04:52:57;13.85;;;8.35;;
36923;SDS011;22841;50.252;18.688;2023-01-01T04:55:23;17.00;;;8.45;;
36923;SDS011;22841;50.252;18.688;2023-01-01T04:57:49;13.80;;;7.20;;
36923;SDS011;22841;50.252;18.688;2023-01-01T05:00:15;12.93;;;7.53;;
36923;SDS011;22841;50.252;18.688;2023-01-01T05:02:41;11.73;;;7.30;;
36923;SDS011;22841;50.252;18.688;2023-01-01T05:05:08;17.05;;;7.97;;
36923;SDS011;22841;50.252;18.688;2023-01-01T05:07:34;20.63;;;9.35;;
36923;SDS011;22841;50.252;18.688;2023-01-01T05:10:00;15.27;;;7.15;;
36923;SDS011;22841;50.252;18.688;2023-01-01T05:12:26;19.23;;;7.60;;
36923;SDS011;22841;50.252;18.688;2023-01-01T05:14:54;17.08;;;8.05;;
36923;SDS011;22841;50.252;18.688;2023-01-01T05:17:20;15.75;;;8.10;;
36923;SDS011;22841;50.252;18.688;2023-01-01T05:19:46;16.27;;;8.40;;
36923;SDS011;22841;50.252;18.688;2023-01-01T05:22:12;17.35;;;8.57;;
36923;SDS011;22841;50.252;18.688;2023-01-01T05:24:38;17.48;;;8.13;;
36923;SDS011;22841;50.252;18.688;2023-01-01T05:27:04;13.15;;;6.70;;
36923;SDS011;22841;50.252;18.688;2023-01-01T05:29:30;11.75;;;6.13;;
36923;SDS011;22841;50.252;18.688;2023-01-01T05:31:56;9.45;;;4.80;;
36923;SDS011;22841;50.252;18.688;2023-01-01T05:34:22;10.18;;;5.82;;
36923;SDS011;22841;50.252;18.688;2023-01-01T05:36:49;10.50;;;5.63;;
36923;SDS011;22841;50.252;18.688;2023-01-01T05:39:15;10.35;;;5.50;;
36923;SDS011;22841;50.252;18.688;2023-01-01T05:41:42;12.32;;;5.20;;
36923;SDS011;22841;50.252;18.688;2023-01-01T05:44:08;10.93;;;5.65;;
36923;SDS011;22841;50.252;18.688;2023-01-01T05:46:35;13.02;;;5.90;;
36923;SDS011;22841;50.252;18.688;2023-01-01T05:49:01;12.13;;;5.63;;
36923;SDS011;22841;50.252;18.688;2023-01-01T05:51:28;11.27;;;6.30;;
36923;SDS011;22841;50.252;18.688;2023-01-01T05:53:55;11.68;;;7.10;;
36923;SDS011;22841;50.252;18.688;2023-01-01T05:56:22;10.32;;;6.32;;
36923;SDS011;22841;50.252;18.688;2023-01-01T05:58:48;12.63;;;7.00;;
36923;SDS011;22841;50.252;18.688;2023-01-01T06:01:16;11.13;;;6.85;;
36923;SDS011;22841;50.252;18.688;2023-01-01T06:03:44;10.07;;;6.53;;
36923;SDS011;22841;50.252;18.688;2023-01-01T06:06:11;10.85;;;6.25;;
36923;SDS011;22841;50.252;18.688;2023-01-01T06:08:39;15.43;;;7.32;;
36923;SDS011;22841;50.252;18.688;2023-01-01T06:11:06;11.20;;;6.45;;
36923;SDS011;22841;50.252;18.688;2023-01-01T06:13:35;15.75;;;6.10;;
36923;SDS011;22841;50.252;18.688;2023-01-01T06:16:01;13.00;;;6.20;;
36923;SDS011;22841;50.252;18.688;2023-01-01T06:18:29;9.57;;;5.93;;
36923;SDS011;22841;50.252;18.688;2023-01-01T06:21:30;9.65;;;5.60;;
36923;SDS011;22841;50.252;18.688;2023-01-01T06:23:50;9.63;;;5.78;;
36923;SDS011;22841;50.252;18.688;2023-01-01T06:26:17;9.20;;;5.85;;
36923;SDS011;22841;50.252;18.688;2023-01-01T06:28:45;10.10;;;5.60;;
36923;SDS011;22841;50.252;18.688;2023-01-01T06:31:13;11.45;;;6.20;;
36923;SDS011;22841;50.252;18.688;2023-01-01T06:33:40;13.95;;;6.70;;
36923;SDS011;22841;50.252;18.688;2023-01-01T06:36:08;15.00;;;6.60;;
36923;SDS011;22841;50.252;18.688;2023-01-01T06:38:37;10.77;;;6.00;;
36923;SDS011;22841;50.252;18.688;2023-01-01T06:41:06;10.20;;;5.63;;
36923;SDS011;22841;50.252;18.688;2023-01-01T06:43:35;11.73;;;6.38;;
36923;SDS011;22841;50.252;18.688;2023-01-01T06:46:06;11.93;;;6.30;;
36923;SDS011;22841;50.252;18.688;2023-01-01T06:48:33;10.60;;;5.80;;
36923;SDS011;22841;50.252;18.688;2023-01-01T06:51:04;10.65;;;6.32;;
36923;SDS011;22841;50.252;18.688;2023-01-01T06:53:32;9.98;;;5.40;;
36923;SDS011;22841;50.252;18.688;2023-01-01T06:55:58;10.73;;;5.68;;
36923;SDS011;22841;50.252;18.688;2023-01-01T06:58:24;11.00;;;6.00;;
36923;SDS011;22841;50.252;18.688;2023-01-01T07:00:50;8.20;;;5.78;;
36923;SDS011;22841;50.252;18.688;2023-01-01T07:03:16;13.05;;;6.68;;
36923;SDS011;22841;50.252;18.688;2023-01-01T07:05:42;8.68;;;5.65;;
36923;SDS011;22841;50.252;18.688;2023-01-01T07:08:08;13.65;;;5.70;;
36923;SDS011;22841;50.252;18.688;2023-01-01T07:10:34;10.77;;;6.28;;
36923;SDS011;22841;50.252;18.688;2023-01-01T07:13:00;14.50;;;6.40;;
36923;SDS011;22841;50.252;18.688;2023-01-01T07:15:26;11.15;;;6.60;;
36923;SDS011;22841;50.252;18.688;2023-01-01T07:17:52;10.63;;;6.57;;
36923;SDS011;22841;50.252;18.688;2023-01-01T07:20:18;8.60;;;5.32;;
36923;SDS011;22841;50.252;18.688;2023-01-01T07:22:45;10.32;;;6.30;;
36923;SDS011;22841;50.252;18.688;2023-01-01T07:25:13;11.57;;;6.60;;
36923;SDS011;22841;50.252;18.688;2023-01-01T07:27:39;8.88;;;6.30;;
36923;SDS011;22841;50.252;18.688;2023-01-01T07:30:06;10.30;;;6.15;;
36923;SDS011;22841;50.252;18.688;2023-01-01T07:32:32;13.30;;;6.97;;
36923;SDS011;22841;50.252;18.688;2023-01-01T07:34:58;11.10;;;6.20;;
36923;SDS011;22841;50.252;18.688;2023-01-01T07:37:24;13.27;;;7.03;;
36923;SDS011;22841;50.252;18.688;2023-01-01T07:39:51;13.02;;;7.70;;
36923;SDS011;22841;50.252;18.688;2023-01-01T07:42:17;12.13;;;6.50;;
36923;SDS011;22841;50.252;18.688;2023-01-01T07:44:43;14.88;;;7.43;;
36923;SDS011;22841;50.252;18.688;2023-01-01T07:47:17;11.55;;;6.68;;
36923;SDS011;22841;50.252;18.688;2023-01-01T07:49:49;13.18;;;6.68;;
36923;SDS011;22841;50.252;18.688;2023-01-01T07:52:16;14.48;;;7.90;;
36923;SDS011;22841;50.252;18.688;2023-01-01T07:54:42;12.63;;;7.22;;
36923;SDS011;22841;50.252;18.688;2023-01-01T07:57:08;13.40;;;7.25;;
36923;SDS011;22841;50.252;18.688;2023-01-01T07:59:34;15.38;;;7.65;;
36923;SDS011;22841;50.252;18.688;2023-01-01T08:02:01;15.27;;;7.07;;
36923;SDS011;22841;50.252;18.688;2023-01-01T08:04:28;14.55;;;6.97;;
36923;SDS011;22841;50.252;18.688;2023-01-01T08:06:54;12.27;;;7.43;;
36923;SDS011;22841;50.252;18.688;2023-01-01T08:09:20;12.25;;;6.68;;
36923;SDS011;22841;50.252;18.688;2023-01-01T08:11:46;13.60;;;7.35;;
36923;SDS011;22841;50.252;18.688;2023-01-01T08:14:12;17.80;;;11.05;;
36923;SDS011;22841;50.252;18.688;2023-01-01T08:16:39;17.65;;;8.02;;
36923;SDS011;22841;50.252;18.688;2023-01-01T08:19:05;12.77;;;7.57;;
36923;SDS011;22841;50.252;18.688;2023-01-01T08:21:31;15.02;;;9.48;;
36923;SDS011;22841;50.252;18.688;2023-01-01T08:23:57;19.35;;;13.05;;
36923;SDS011;22841;50.252;18.688;2023-01-01T08:26:30;16.15;;;8.77;;
36923;SDS011;22841;50.252;18.688;2023-01-01T08:28:57;13.93;;;7.90;;
36923;SDS011;22841;50.252;18.688;2023-01-01T08:31:26;12.23;;;7.80;;
36923;SDS011;22841;50.252;18.688;2023-01-01T08:33:52;12.63;;;7.65;;
36923;SDS011;22841;50.252;18.688;2023-01-01T08:36:18;13.90;;;7.82;;
36923;SDS011;22841;50.252;18.688;2023-01-01T08:38:45;14.82;;;8.15;;
36923;SDS011;22841;50.252;18.688;2023-01-01T08:41:11;16.67;;;8.90;;
36923;SDS011;22841;50.252;18.688;2023-01-01T08:43:37;15.07;;;9.15;;
36923;SDS011;22841;50.252;18.688;2023-01-01T08:46:03;14.75;;;8.20;;
36923;SDS011;22841;50.252;18.688;2023-01-01T08:48:29;15.13;;;8.80;;
36923;SDS011;22841;50.252;18.688;2023-01-01T08:50:56;15.82;;;8.73;;
36923;SDS011;22841;50.252;18.688;2023-01-01T08:53:28;15.05;;;7.88;;
36923;SDS011;22841;50.252;18.688;2023-01-01T08:55:58;15.20;;;8.13;;
36923;SDS011;22841;50.252;18.688;2023-01-01T08:58:32;22.42;;;9.25;;
36923;SDS011;22841;50.252;18.688;2023-01-01T09:01:00;15.55;;;8.48;;
36923;SDS011;22841;50.252;18.688;2023-01-01T09:03:27;11.75;;;7.47;;
36923;SDS011;22841;50.252;18.688;2023-01-01T09:05:53;16.08;;;7.15;;
36923;SDS011;22841;50.252;18.688;2023-01-01T09:08:20;15.50;;;7.25;;
36923;SDS011;22841;50.252;18.688;2023-01-01T09:10:46;10.05;;;6.45;;
36923;SDS011;22841;50.252;18.688;2023-01-01T09:13:13;13.52;;;7.82;;
36923;SDS011;22841;50.252;18.688;2023-01-01T09:15:42;16.17;;;7.95;;
36923;SDS011;22841;50.252;18.688;2023-01-01T09:18:08;14.88;;;7.22;;
36923;SDS011;22841;50.252;18.688;2023-01-01T09:20:35;12.07;;;7.40;;
36923;SDS011;22841;50.252;18.688;2023-01-01T09:23:02;14.40;;;6.88;;
36923;SDS011;22841;50.252;18.688;2023-01-01T09:25:29;15.75;;;7.75;;
36923;SDS011;22841;50.252;18.688;2023-01-01T09:28:01;16.38;;;7.82;;
36923;SDS011;22841;50.252;18.688;2023-01-01T09:30:32;10.85;;;7.20;;
36923;SDS011;22841;50.252;18.688;2023-01-01T09:32:59;12.60;;;6.97;;
36923;SDS011;22841;50.252;18.688;2023-01-01T09:35:26;11.85;;;6.90;;
36923;SDS011;22841;50.252;18.688;2023-01-01T09:37:52;13.57;;;7.85;;
36923;SDS011;22841;50.252;18.688;2023-01-01T09:46:05;13.02;;;6.80;;
36923;SDS011;22841;50.252;18.688;2023-01-01T09:48:32;18.80;;;6.80;;
36923;SDS011;22841;50.252;18.688;2023-01-01T09:51:02;14.60;;;6.60;;
36923;SDS011;22841;50.252;18.688;2023-01-01T09:53:39;12.40;;;6.22;;
36923;SDS011;22841;50.252;18.688;2023-01-01T09:56:46;12.43;;;5.93;;
36923;SDS011;22841;50.252;18.688;2023-01-01T09:59:07;9.18;;;5.85;;
36923;SDS011;22841;50.252;18.688;2023-01-01T10:01:48;10.40;;;5.22;;
36923;SDS011;22841;50.252;18.688;2023-01-01T10:04:36;10.57;;;5.50;;
36923;SDS011;22841;50.252;18.688;2023-01-01T10:07:28;10.68;;;5.57;;
36923;SDS011;22841;50.252;18.688;2023-01-01T10:10:02;9.25;;;5.32;;
36923;SDS011;22841;50.252;18.688;2023-01-01T10:15:31;13.25;;;6.05;;
36923;SDS011;22841;50.252;18.688;2023-01-01T10:18:04;11.07;;;5.05;;
36923;SDS011;22841;50.252;18.688;2023-01-01T10:20:45;12.05;;;6.15;;
36923;SDS011;22841;50.252;18.688;2023-01-01T10:23:22;10.07;;;5.68;;
36923;SDS011;22841;50.252;18.688;2023-01-01T10:25:53;8.60;;;6.03;;
36923;SDS011;22841;50.252;18.688;2023-01-01T10:28:24;10.43;;;6.03;;
36923;SDS011;22841;50.252;18.688;2023-01-01T10:31:09;9.32;;;4.97;;
36923;SDS011;22841;50.252;18.688;2023-01-01T10:33:40;9.52;;;5.10;;
36923;SDS011;22841;50.252;18.688;2023-01-01T10:36:09;9.73;;;5.03;;
36923;SDS011;22841;50.252;18.688;2023-01-01T10:38:39;11.80;;;5.57;;
36923;SDS011;22841;50.252;18.688;2023-01-01T10:41:06;12.07;;;5.55;;
36923;SDS011;22841;50.252;18.688;2023-01-01T10:43:34;11.95;;;5.93;;
36923;SDS011;22841;50.252;18.688;2023-01-01T10:46:01;12.45;;;5.70;;
36923;SDS011;22841;50.252;18.688;2023-01-01T10:48:28;8.60;;;5.40;;
36923;SDS011;22841;50.252;18.688;2023-01-01T10:50:59;12.48;;;4.97;;
36923;SDS011;22841;50.252;18.688;2023-01-01T10:53:39;11.60;;;6.30;;
36923;SDS011;22841;50.252;18.688;2023-01-01T10:56:15;9.50;;;6.15;;
36923;SDS011;22841;50.252;18.688;2023-01-01T11:06:37;14.20;;;6.45;;
36923;SDS011;22841;50.252;18.688;2023-01-01T11:09:21;11.02;;;6.40;;
36923;SDS011;22841;50.252;18.688;2023-01-01T11:14:26;12.70;;;6.85;;
36923;SDS011;22841;50.252;18.688;2023-01-01T11:16:55;10.77;;;6.38;;
36923;SDS011;22841;50.252;18.688;2023-01-01T11:19:23;13.30;;;7.35;;
36923;SDS011;22841;50.252;18.688;2023-01-01T11:21:53;16.73;;;7.70;;
36923;SDS011;22841;50.252;18.688;2023-01-01T11:24:21;13.20;;;7.15;;
36923;SDS011;22841;50.252;18.688;2023-01-01T11:26:49;14.02;;;7.60;;
36923;SDS011;22841;50.252;18.688;2023-01-01T11:29:27;13.27;;;7.20;;
36923;SDS011;22841;50.252;18.688;2023-01-01T11:31:54;14.38;;;7.05;;
36923;SDS011;22841;50.252;18.688;2023-01-01T11:34:35;13.50;;;7.00;;
36923;SDS011;22841;50.252;18.688;2023-01-01T11:37:07;11.50;;;6.50;;
36923;SDS011;22841;50.252;18.688;2023-01-01T11:39:44;10.10;;;6.40;;
36923;SDS011;22841;50.252;18.688;2023-01-01T11:42:20;13.10;;;7.30;;
36923;SDS011;22841;50.252;18.688;2023-01-01T11:44:50;11.88;;;7.25;;
36923;SDS011;22841;50.252;18.688;2023-01-01T11:49:52;12.10;;;5.97;;
36923;SDS011;22841;50.252;18.688;2023-01-01T11:52:39;9.95;;;5.05;;
36923;SDS011;22841;50.252;18.688;2023-01-01T11:58:07;7.88;;;4.95;;
36923;SDS011;22841;50.252;18.688;2023-01-01T12:00:43;7.85;;;4.90;;
36923;SDS011;22841;50.252;18.688;2023-01-01T12:03:16;7.85;;;4.72;;
36923;SDS011;22841;50.252;18.688;2023-01-01T12:06:06;8.70;;;4.38;;
36923;SDS011;22841;50.252;18.688;2023-01-01T12:08:47;6.28;;;4.55;;
36923;SDS011;22841;50.252;18.688;2023-01-01T12:11:23;8.23;;;4.57;;
36923;SDS011;22841;50.252;18.688;2023-01-01T12:14:03;10.07;;;5.55;;
36923;SDS011;22841;50.252;18.688;2023-01-01T12:16:48;8.30;;;4.50;;
36923;SDS011;22841;50.252;18.688;2023-01-01T12:19:33;8.73;;;4.93;;
36923;SDS011;22841;50.252;18.688;2023-01-01T12:22:14;10.45;;;4.85;;
36923;SDS011;22841;50.252;18.688;2023-01-01T12:24:41;9.63;;;4.85;;
36923;SDS011;22841;50.252;18.688;2023-01-01T12:43:19;8.50;;;4.38;;
36923;SDS011;22841;50.252;18.688;2023-01-01T12:45:54;12.95;;;5.20;;
36923;SDS011;22841;50.252;18.688;2023-01-01T12:48:38;9.77;;;4.75;;
36923;SDS011;22841;50.252;18.688;2023-01-01T12:51:16;8.43;;;4.85;;
36923;SDS011;22841;50.252;18.688;2023-01-01T12:57:15;6.80;;;4.38;;
36923;SDS011;22841;50.252;18.688;2023-01-01T12:59:45;9.38;;;4.00;;
36923;SDS011;22841;50.252;18.688;2023-01-01T13:02:17;8.38;;;4.25;;
36923;SDS011;22841;50.252;18.688;2023-01-01T13:04:49;7.05;;;4.22;;
36923;SDS011;22841;50.252;18.688;2023-01-01T13:07:28;8.57;;;4.45;;
36923;SDS011;22841;50.252;18.688;2023-01-01T13:10:02;9.35;;;4.25;;
36923;SDS011;22841;50.252;18.688;2023-01-01T13:12:41;9.88;;;4.72;;
36923;SDS011;22841;50.252;18.688;2023-01-01T13:18:00;8.88;;;4.28;;
36923;SDS011;22841;50.252;18.688;2023-01-01T13:20:33;7.45;;;3.90;;
36923;SDS011;22841;50.252;18.688;2023-01-01T13:23:02;10.93;;;4.97;;
36923;SDS011;22841;50.252;18.688;2023-01-01T13:25:28;9.02;;;4.95;;
36923;SDS011;22841;50.252;18.688;2023-01-01T13:33:24;7.88;;;4.80;;
36923;SDS011;22841;50.252;18.688;2023-01-01T13:38:49;10.40;;;5.63;;
36923;SDS011;22841;50.252;18.688;2023-01-01T13:51:56;8.52;;;5.53;;
36923;SDS011;22841;50.252;18.688;2023-01-01T14:03:24;9.50;;;5.50;;
36923;SDS011;22841;50.252;18.688;2023-01-01T14:10:52;14.57;;;5.75;;
36923;SDS011;22841;50.252;18.688;2023-01-01T14:13:18;10.57;;;6.00;;
36923;SDS011;22841;50.252;18.688;2023-01-01T14:18:30;13.73;;;6.90;;
36923;SDS011;22841;50.252;18.688;2023-01-01T14:21:20;25.27;;;8.60;;
36923;SDS011;22841;50.252;18.688;2023-01-01T14:26:26;16.30;;;7.90;;
36923;SDS011;22841;50.252;18.688;2023-01-01T14:28:57;15.52;;;7.53;;
36923;SDS011;22841;50.252;18.688;2023-01-01T14:31:34;17.00;;;7.88;;
36923;SDS011;22841;50.252;18.688;2023-01-01T14:34:56;20.88;;;8.73;;
36923;SDS011;22841;50.252;18.688;2023-01-01T14:36:54;16.92;;;6.90;;
36923;SDS011;22841;50.252;18.688;2023-01-01T14:39:34;19.77;;;12.02;;
36923;SDS011;22841;50.252;18.688;2023-01-01T14:42:08;21.48;;;9.18;;
36923;SDS011;22841;50.252;18.688;2023-01-01T14:44:40;13.93;;;7.47;;
36923;SDS011;22841;50.252;18.688;2023-01-01T14:47:21;13.82;;;7.88;;
36923;SDS011;22841;50.252;18.688;2023-01-01T14:49:50;14.52;;;7.53;;
36923;SDS011;22841;50.252;18.688;2023-01-01T14:52:21;12.73;;;7.60;;
36923;SDS011;22841;50.252;18.688;2023-01-01T14:54:53;15.45;;;7.30;;
36923;SDS011;22841;50.252;18.688;2023-01-01T14:57:23;15.40;;;8.02;;
36923;SDS011;22841;50.252;18.688;2023-01-01T14:59:52;16.98;;;7.82;;
36923;SDS011;22841;50.252;18.688;2023-01-01T15:02:28;15.23;;;8.77;;
36923;SDS011;22841;50.252;18.688;2023-01-01T15:04:57;15.23;;;7.70;;
36923;SDS011;22841;50.252;18.688;2023-01-01T15:07:27;19.70;;;9.10;;
36923;SDS011;22841;50.252;18.688;2023-01-01T15:12:24;17.85;;;8.30;;
36923;SDS011;22841;50.252;18.688;2023-01-01T15:14:52;16.67;;;9.05;;
36923;SDS011;22841;50.252;18.688;2023-01-01T15:17:23;21.80;;;10.50;;
36923;SDS011;22841;50.252;18.688;2023-01-01T15:20:01;21.02;;;9.10;;
36923;SDS011;22841;50.252;18.688;2023-01-01T15:22:43;19.52;;;9.88;;
36923;SDS011;22841;50.252;18.688;2023-01-01T15:25:13;20.38;;;9.90;;
36923;SDS011;22841;50.252;18.688;2023-01-01T15:27:41;20.83;;;9.90;;
36923;SDS011;22841;50.252;18.688;2023-01-01T15:32:51;23.65;;;10.80;;
36923;SDS011;22841;50.252;18.688;2023-01-01T15:35:19;21.13;;;9.73;;
36923;SDS011;22841;50.252;18.688;2023-01-01T15:38:15;21.10;;;10.90;;
36923;SDS011;22841;50.252;18.688;2023-01-01T15:40:48;26.55;;;12.43;;
36923;SDS011;22841;50.252;18.688;2023-01-01T15:43:25;31.00;;;14.05;;
36923;SDS011;22841;50.252;18.688;2023-01-01T15:45:58;30.98;;;14.13;;
36923;SDS011;22841;50.252;18.688;2023-01-01T15:48:35;32.08;;;14.55;;
36923;SDS011;22841;50.252;18.688;2023-01-01T15:51:16;28.98;;;14.80;;
36923;SDS011;22841;50.252;18.688;2023-01-01T15:56:28;26.90;;;13.50;;
36923;SDS011;22841;50.252;18.688;2023-01-01T15:59:00;30.75;;;13.65;;
36923;SDS011;22841;50.252;18.688;2023-01-01T16:01:32;30.00;;;12.45;;
36923;SDS011;22841;50.252;18.688;2023-01-01T16:06:33;25.13;;;12.80;;
36923;SDS011;22841;50.252;18.688;2023-01-01T16:09:11;27.27;;;12.43;;
36923;SDS011;22841;50.252;18.688;2023-01-01T16:11:41;27.15;;;13.32;;
36923;SDS011;22841;50.252;18.688;2023-01-01T16:14:07;23.38;;;12.10;;
36923;SDS011;22841;50.252;18.688;2023-01-01T16:16:35;23.10;;;11.32;;
36923;SDS011;22841;50.252;18.688;2023-01-01T16:19:03;27.02;;;12.63;;
36923;SDS011;22841;50.252;18.688;2023-01-01T16:21:30;23.73;;;11.32;;
36923;SDS011;22841;50.252;18.688;2023-01-01T16:23:59;21.45;;;11.57;;
36923;SDS011;22841;50.252;18.688;2023-01-01T16:26:25;25.67;;;11.32;;
36923;SDS011;22841;50.252;18.688;2023-01-01T16:28:52;27.75;;;11.98;;
36923;SDS011;22841;50.252;18.688;2023-01-01T16:31:20;24.48;;;10.90;;
36923;SDS011;22841;50.252;18.688;2023-01-01T16:33:51;19.88;;;10.50;;
36923;SDS011;22841;50.252;18.688;2023-01-01T16:36:19;21.25;;;11.45;;
36923;SDS011;22841;50.252;18.688;2023-01-01T16:38:45;25.05;;;10.90;;